sensor_id;sensor_type;location;lat;lon;timestamp;pressure;altitude;pressure_sealevel;temperature;humidity
7480;BME280;3781;42.272;22.658;2022-11-21T00:01:42;93236.91;;;10.55;nan
7480;BME280;3781;42.272;22.658;2022-11-21T00:04:09;93294.56;;;10.90;nan
7480;BME280;3781;42.272;22.658;2022-11-21T00:06:36;93271.53;;;10.87;nan
7480;BME280;3781;42.272;22.658;2022-11-21T00:09:02;93280.41;;;10.92;nan
7480;BME280;3781;42.272;22.658;2022-11-21T00:11:30;93244.91;;;10.85;nan
7480;BME280;3781;42.272;22.658;2022-11-21T00:13:57;93263.81;;;11.01;nan
7480;BME280;3781;42.272;22.658;2022-11-21T00:16:24;93255.59;;;10.90;nan
7480;BME280;3781;42.272;22.658;2022-11-21T00:18:51;93256.94;;;10.78;nan
7480;BME280;3781;42.272;22.658;2022-11-21T00:21:18;93245.00;;;10.60;nan
7480;BME280;3781;42.272;22.658;2022-11-21T00:23:46;93232.69;;;10.54;nan
7480;BME280;3781;42.272;22.658;2022-11-21T00:26:14;93208.88;;;10.43;nan
7480;BME280;3781;42.272;22.658;2022-11-21T00:28:43;93227.13;;;10.74;nan
7480;BME280;3781;42.272;22.658;2022-11-21T00:31:17;93226.75;;;10.85;nan
7480;BME280;3781;42.272;22.658;2022-11-21T00:33:44;93185.94;;;10.63;nan
7480;BME280;3781;42.272;22.658;2022-11-21T00:36:11;93224.44;;;10.90;nan
7480;BME280;3781;42.272;22.658;2022-11-21T00:38:38;93214.47;;;11.01;nan
7480;BME280;3781;42.272;22.658;2022-11-21T00:41:05;93208.31;;;11.02;nan
7480;BME280;3781;42.272;22.658;2022-11-21T00:43:33;93223.09;;;11.02;nan
7480;BME280;3781;42.272;22.658;2022-11-21T00:46:01;93222.09;;;11.03;nan
7480;BME280;3781;42.272;22.658;2022-11-21T00:48:29;93228.84;;;11.12;nan
7480;BME280;3781;42.272;22.658;2022-11-21T00:50:56;93224.59;;;11.19;nan
7480;BME280;3781;42.272;22.658;2022-11-21T00:53:22;93233.69;;;11.23;nan
7480;BME280;3781;42.272;22.658;2022-11-21T00:55:49;93238.53;;;11.26;nan
7480;BME280;3781;42.272;22.658;2022-11-21T00:58:16;93232.84;;;11.30;nan
7480;BME280;3781;42.272;22.658;2022-11-21T01:00:43;93219.31;;;11.35;nan
7480;BME280;3781;42.272;22.658;2022-11-21T01:03:11;93221.50;;;11.46;nan
7480;BME280;3781;42.272;22.658;2022-11-21T01:05:37;93235.44;;;11.53;nan
7480;BME280;3781;42.272;22.658;2022-11-21T01:08:04;93205.69;;;11.33;nan
7480;BME280;3781;42.272;22.658;2022-11-21T01:10:32;93241.38;;;11.39;nan
7480;BME280;3781;42.272;22.658;2022-11-21T01:12:59;93235.00;;;11.19;nan
7480;BME280;3781;42.272;22.658;2022-11-21T01:15:26;93239.63;;;11.09;nan
7480;BME280;3781;42.272;22.658;2022-11-21T01:17:53;93236.06;;;11.02;nan
7480;BME280;3781;42.272;22.658;2022-11-21T01:20:21;93210.78;;;10.96;nan
7480;BME280;3781;42.272;22.658;2022-11-21T01:22:48;93232.78;;;11.08;nan
7480;BME280;3781;42.272;22.658;2022-11-21T01:25:14;93247.47;;;11.23;nan
7480;BME280;3781;42.272;22.658;2022-11-21T01:27:41;93242.19;;;11.40;nan
7480;BME280;3781;42.272;22.658;2022-11-21T01:30:09;93223.22;;;11.31;nan
7480;BME280;3781;42.272;22.658;2022-11-21T01:32:36;93201.28;;;11.11;nan
7480;BME280;3781;42.272;22.658;2022-11-21T01:35:03;93238.16;;;11.37;nan
7480;BME280;3781;42.272;22.658;2022-11-21T01:37:31;93213.88;;;11.22;nan
7480;BME280;3781;42.272;22.658;2022-11-21T01:39:58;93225.56;;;11.18;nan
7480;BME280;3781;42.272;22.658;2022-11-21T01:42:24;93228.16;;;11.18;nan
7480;BME280;3781;42.272;22.658;2022-11-21T01:44:52;93210.72;;;11.04;nan
7480;BME280;3781;42.272;22.658;2022-11-21T01:47:19;93207.44;;;11.10;nan
7480;BME280;3781;42.272;22.658;2022-11-21T01:49:48;93202.75;;;11.05;nan
7480;BME280;3781;42.272;22.658;2022-11-21T01:52:20;93212.59;;;11.18;nan
7480;BME280;3781;42.272;22.658;2022-11-21T01:54:53;93221.28;;;11.33;nan
7480;BME280;3781;42.272;22.658;2022-11-21T01:57:25;93211.78;;;11.40;nan
7480;BME280;3781;42.272;22.658;2022-11-21T01:59:55;93199.63;;;11.41;nan
7480;BME280;3781;42.272;22.658;2022-11-21T02:02:28;93184.19;;;11.39;nan
7480;BME280;3781;42.272;22.658;2022-11-21T02:04:56;93195.88;;;11.43;nan
7480;BME280;3781;42.272;22.658;2022-11-21T02:07:25;93200.63;;;11.40;nan
7480;BME280;3781;42.272;22.658;2022-11-21T02:09:56;93192.50;;;11.57;nan
7480;BME280;3781;42.272;22.658;2022-11-21T02:12:28;93189.84;;;11.65;nan
7480;BME280;3781;42.272;22.658;2022-11-21T02:14:57;93189.38;;;11.62;nan
7480;BME280;3781;42.272;22.658;2022-11-21T02:17:25;93171.13;;;11.47;nan
7480;BME280;3781;42.272;22.658;2022-11-21T02:19:54;93187.19;;;11.51;nan
7480;BME280;3781;42.272;22.658;2022-11-21T02:22:29;93187.50;;;11.33;nan
7480;BME280;3781;42.272;22.658;2022-11-21T02:25:01;93193.22;;;11.28;nan
7480;BME280;3781;42.272;22.658;2022-11-21T02:27:29;93195.78;;;11.06;nan
7480;BME280;3781;42.272;22.658;2022-11-21T02:29:56;93198.38;;;11.06;nan
7480;BME280;3781;42.272;22.658;2022-11-21T02:32:31;93197.81;;;11.18;nan
7480;BME280;3781;42.272;22.658;2022-11-21T02:34:58;93194.94;;;11.13;nan
7480;BME280;3781;42.272;22.658;2022-11-21T02:37:25;93196.97;;;10.95;nan
7480;BME280;3781;42.272;22.658;2022-11-21T02:39:52;93194.72;;;10.92;nan
7480;BME280;3781;42.272;22.658;2022-11-21T02:42:25;93188.81;;;10.76;nan
7480;BME280;3781;42.272;22.658;2022-11-21T02:44:59;93173.41;;;10.74;nan
7480;BME280;3781;42.272;22.658;2022-11-21T02:47:27;93186.50;;;10.81;nan
7480;BME280;3781;42.272;22.658;2022-11-21T02:49:58;93192.34;;;10.83;nan
7480;BME280;3781;42.272;22.658;2022-11-21T02:52:26;93199.50;;;10.81;nan
7480;BME280;3781;42.272;22.658;2022-11-21T02:54:53;93192.59;;;10.96;nan
7480;BME280;3781;42.272;22.658;2022-11-21T02:57:21;93182.34;;;10.94;nan
7480;BME280;3781;42.272;22.658;2022-11-21T02:59:47;93166.38;;;10.83;nan
7480;BME280;3781;42.272;22.658;2022-11-21T03:02:14;93182.47;;;11.01;nan
7480;BME280;3781;42.272;22.658;2022-11-21T03:04:41;93179.34;;;11.13;nan
7480;BME280;3781;42.272;22.658;2022-11-21T03:07:07;93175.53;;;11.24;nan
7480;BME280;3781;42.272;22.658;2022-11-21T03:09:34;93177.03;;;11.18;nan
7480;BME280;3781;42.272;22.658;2022-11-21T03:12:05;93144.91;;;10.89;nan
7480;BME280;3781;42.272;22.658;2022-11-21T03:14:33;93175.19;;;10.96;nan
7480;BME280;3781;42.272;22.658;2022-11-21T03:16:59;93169.59;;;10.85;nan
7480;BME280;3781;42.272;22.658;2022-11-21T03:19:26;93171.09;;;10.79;nan
7480;BME280;3781;42.272;22.658;2022-11-21T03:21:53;93169.13;;;10.81;nan
7480;BME280;3781;42.272;22.658;2022-11-21T03:24:20;93175.06;;;10.98;nan
7480;BME280;3781;42.272;22.658;2022-11-21T03:26:47;93161.44;;;10.96;nan
7480;BME280;3781;42.272;22.658;2022-11-21T03:29:14;93172.72;;;11.03;nan
7480;BME280;3781;42.272;22.658;2022-11-21T03:31:42;93132.19;;;10.71;nan
7480;BME280;3781;42.272;22.658;2022-11-21T03:34:08;93151.13;;;10.80;nan
7480;BME280;3781;42.272;22.658;2022-11-21T03:36:35;93151.13;;;10.80;nan
7480;BME280;3781;42.272;22.658;2022-11-21T03:39:03;93146.63;;;10.74;nan
7480;BME280;3781;42.272;22.658;2022-11-21T03:41:29;93149.22;;;10.74;nan
7480;BME280;3781;42.272;22.658;2022-11-21T03:43:57;93150.19;;;10.73;nan
7480;BME280;3781;42.272;22.658;2022-11-21T03:46:24;93134.97;;;10.70;nan
7480;BME280;3781;42.272;22.658;2022-11-21T03:48:52;93147.63;;;10.65;nan
7480;BME280;3781;42.272;22.658;2022-11-21T03:51:19;93149.25;;;10.66;nan
7480;BME280;3781;42.272;22.658;2022-11-21T03:53:45;93146.94;;;10.71;nan
7480;BME280;3781;42.272;22.658;2022-11-21T03:56:12;93148.31;;;10.58;nan
7480;BME280;3781;42.272;22.658;2022-11-21T03:58:39;93137.38;;;10.40;nan
7480;BME280;3781;42.272;22.658;2022-11-21T04:01:06;93157.78;;;10.43;nan
7480;BME280;3781;42.272;22.658;2022-11-21T04:03:33;93177.69;;;10.51;nan
7480;BME280;3781;42.272;22.658;2022-11-21T04:06:02;93167.13;;;10.60;nan
7480;BME280;3781;42.272;22.658;2022-11-21T04:08:28;93167.50;;;10.49;nan
7480;BME280;3781;42.272;22.658;2022-11-21T04:10:55;93179.78;;;10.55;nan
7480;BME280;3781;42.272;22.658;2022-11-21T04:13:22;93185.06;;;10.70;nan
7480;BME280;3781;42.272;22.658;2022-11-21T04:15:49;93165.84;;;10.56;nan
7480;BME280;3781;42.272;22.658;2022-11-21T04:18:16;93171.69;;;10.50;nan
7480;BME280;3781;42.272;22.658;2022-11-21T04:20:43;93178.53;;;10.51;nan
7480;BME280;3781;42.272;22.658;2022-11-21T04:23:11;93170.22;;;10.56;nan
7480;BME280;3781;42.272;22.658;2022-11-21T04:25:38;93176.25;;;10.56;nan
7480;BME280;3781;42.272;22.658;2022-11-21T04:28:05;93179.66;;;10.49;nan
7480;BME280;3781;42.272;22.658;2022-11-21T04:30:32;93181.16;;;10.43;nan
7480;BME280;3781;42.272;22.658;2022-11-21T04:32:59;93178.56;;;10.35;nan
7480;BME280;3781;42.272;22.658;2022-11-21T04:35:26;93184.75;;;10.34;nan
7480;BME280;3781;42.272;22.658;2022-11-21T04:37:53;93204.19;;;10.38;nan
7480;BME280;3781;42.272;22.658;2022-11-21T04:40:21;93193.50;;;10.33;nan
7480;BME280;3781;42.272;22.658;2022-11-21T04:42:48;93194.19;;;10.19;nan
7480;BME280;3781;42.272;22.658;2022-11-21T04:45:15;93196.44;;;10.30;nan
7480;BME280;3781;42.272;22.658;2022-11-21T04:47:44;93197.41;;;10.29;nan
7480;BME280;3781;42.272;22.658;2022-11-21T04:50:13;93203.72;;;10.35;nan
7480;BME280;3781;42.272;22.658;2022-11-21T04:52:41;93194.53;;;10.08;nan
7480;BME280;3781;42.272;22.658;2022-11-21T04:55:08;93205.06;;;10.07;nan
7480;BME280;3781;42.272;22.658;2022-11-21T04:57:36;93208.44;;;10.07;nan
7480;BME280;3781;42.272;22.658;2022-11-21T05:00:04;93219.47;;;10.09;nan
7480;BME280;3781;42.272;22.658;2022-11-21T05:02:31;93229.88;;;10.17;nan
7480;BME280;3781;42.272;22.658;2022-11-21T05:04:58;93224.34;;;10.20;nan
7480;BME280;3781;42.272;22.658;2022-11-21T05:07:25;93215.25;;;10.32;nan
7480;BME280;3781;42.272;22.658;2022-11-21T05:09:52;93194.03;;;10.21;nan
7480;BME280;3781;42.272;22.658;2022-11-21T05:12:19;93235.63;;;10.51;nan
7480;BME280;3781;42.272;22.658;2022-11-21T05:15:05;93220.19;;;10.58;nan
7480;BME280;3781;42.272;22.658;2022-11-21T05:17:31;93239.69;;;10.54;nan
7480;BME280;3781;42.272;22.658;2022-11-21T05:19:58;93251.19;;;10.51;nan
7480;BME280;3781;42.272;22.658;2022-11-21T05:22:25;93242.31;;;10.46;nan
7480;BME280;3781;42.272;22.658;2022-11-21T05:24:52;93242.63;;;10.43;nan
7480;BME280;3781;42.272;22.658;2022-11-21T05:27:18;93243.91;;;10.47;nan
7480;BME280;3781;42.272;22.658;2022-11-21T05:29:45;93236.63;;;10.42;nan
7480;BME280;3781;42.272;22.658;2022-11-21T05:32:13;93242.44;;;10.52;nan
7480;BME280;3781;42.272;22.658;2022-11-21T05:34:40;93244.47;;;10.73;nan
7480;BME280;3781;42.272;22.658;2022-11-21T05:37:07;93263.44;;;10.82;nan
7480;BME280;3781;42.272;22.658;2022-11-21T05:39:34;93240.72;;;10.76;nan
7480;BME280;3781;42.272;22.658;2022-11-21T05:42:00;93239.50;;;10.55;nan
7480;BME280;3781;42.272;22.658;2022-11-21T05:44:27;93254.13;;;10.56;nan
7480;BME280;3781;42.272;22.658;2022-11-21T05:46:53;93259.09;;;10.66;nan
7480;BME280;3781;42.272;22.658;2022-11-21T05:49:21;93276.59;;;10.80;nan
7480;BME280;3781;42.272;22.658;2022-11-21T05:51:48;93285.13;;;10.97;nan
7480;BME280;3781;42.272;22.658;2022-11-21T05:54:14;93285.13;;;10.97;nan
7480;BME280;3781;42.272;22.658;2022-11-21T05:56:41;93281.09;;;10.86;nan
7480;BME280;3781;42.272;22.658;2022-11-21T05:59:09;93282.28;;;10.76;nan
7480;BME280;3781;42.272;22.658;2022-11-21T06:01:36;93296.88;;;10.77;nan
7480;BME280;3781;42.272;22.658;2022-11-21T06:04:22;93300.50;;;10.68;nan
7480;BME280;3781;42.272;22.658;2022-11-21T06:06:49;93312.72;;;10.90;nan
7480;BME280;3781;42.272;22.658;2022-11-21T06:09:16;93299.59;;;10.83;nan
7480;BME280;3781;42.272;22.658;2022-11-21T06:11:42;93306.94;;;10.80;nan
7480;BME280;3781;42.272;22.658;2022-11-21T06:14:09;93317.56;;;11.09;nan
7480;BME280;3781;42.272;22.658;2022-11-21T06:16:36;93314.22;;;11.23;nan
7480;BME280;3781;42.272;22.658;2022-11-21T06:19:03;93321.78;;;11.02;nan
7480;BME280;3781;42.272;22.658;2022-11-21T06:21:31;93328.94;;;10.92;nan
7480;BME280;3781;42.272;22.658;2022-11-21T06:24:01;93343.81;;;11.22;nan
7480;BME280;3781;42.272;22.658;2022-11-21T06:26:28;93347.97;;;11.39;nan
7480;BME280;3781;42.272;22.658;2022-11-21T06:28:55;93357.06;;;11.35;nan
7480;BME280;3781;42.272;22.658;2022-11-21T06:31:23;93359.94;;;11.48;nan
7480;BME280;3781;42.272;22.658;2022-11-21T06:33:51;93359.03;;;11.64;nan
7480;BME280;3781;42.272;22.658;2022-11-21T06:36:18;93338.75;;;11.67;nan
7480;BME280;3781;42.272;22.658;2022-11-21T06:38:46;93356.88;;;11.75;nan
7480;BME280;3781;42.272;22.658;2022-11-21T06:41:14;93364.88;;;11.96;nan
7480;BME280;3781;42.272;22.658;2022-11-21T06:43:42;93382.22;;;12.27;nan
7480;BME280;3781;42.272;22.658;2022-11-21T06:46:10;93399.38;;;12.44;nan
7480;BME280;3781;42.272;22.658;2022-11-21T06:48:37;93405.84;;;12.48;nan
7480;BME280;3781;42.272;22.658;2022-11-21T06:51:04;93404.59;;;12.44;nan
7480;BME280;3781;42.272;22.658;2022-11-21T06:53:31;93417.06;;;12.26;nan
7480;BME280;3781;42.272;22.658;2022-11-21T06:56:00;93430.28;;;12.16;nan
7480;BME280;3781;42.272;22.658;2022-11-21T06:58:27;93390.63;;;11.91;nan
7480;BME280;3781;42.272;22.658;2022-11-21T07:00:54;93436.00;;;12.11;nan
7480;BME280;3781;42.272;22.658;2022-11-21T07:03:21;93455.28;;;12.02;nan
7480;BME280;3781;42.272;22.658;2022-11-21T07:05:48;93458.59;;;11.88;nan
7480;BME280;3781;42.272;22.658;2022-11-21T07:08:16;93464.66;;;11.81;nan
7480;BME280;3781;42.272;22.658;2022-11-21T07:10:43;93476.13;;;11.94;nan
7480;BME280;3781;42.272;22.658;2022-11-21T07:13:11;93480.50;;;12.02;nan
7480;BME280;3781;42.272;22.658;2022-11-21T07:15:48;93471.88;;;12.01;nan
7480;BME280;3781;42.272;22.658;2022-11-21T07:18:15;93454.84;;;11.91;nan
7480;BME280;3781;42.272;22.658;2022-11-21T07:20:43;93477.44;;;11.90;nan
7480;BME280;3781;42.272;22.658;2022-11-21T07:23:10;93471.47;;;11.82;nan
7480;BME280;3781;42.272;22.658;2022-11-21T07:25:37;93480.44;;;11.71;nan
7480;BME280;3781;42.272;22.658;2022-11-21T07:28:04;93483.22;;;11.70;nan
7480;BME280;3781;42.272;22.658;2022-11-21T07:30:33;93466.22;;;11.43;nan
7480;BME280;3781;42.272;22.658;2022-11-21T07:33:02;93476.63;;;11.27;nan
7480;BME280;3781;42.272;22.658;2022-11-21T07:35:30;93476.16;;;11.23;nan
7480;BME280;3781;42.272;22.658;2022-11-21T07:37:57;93502.63;;;11.35;nan
7480;BME280;3781;42.272;22.658;2022-11-21T07:40:24;93501.00;;;11.34;nan
7480;BME280;3781;42.272;22.658;2022-11-21T07:42:51;93504.06;;;11.37;nan
7480;BME280;3781;42.272;22.658;2022-11-21T07:45:18;93516.72;;;11.49;nan
7480;BME280;3781;42.272;22.658;2022-11-21T07:47:46;93519.78;;;11.60;nan
7480;BME280;3781;42.272;22.658;2022-11-21T07:50:13;93514.63;;;11.44;nan
7480;BME280;3781;42.272;22.658;2022-11-21T07:52:40;93528.88;;;11.64;nan
7480;BME280;3781;42.272;22.658;2022-11-21T07:55:07;93526.59;;;11.77;nan
7480;BME280;3781;42.272;22.658;2022-11-21T07:57:34;93516.81;;;11.87;nan
7480;BME280;3781;42.272;22.658;2022-11-21T08:00:01;93518.66;;;12.09;nan
7480;BME280;3781;42.272;22.658;2022-11-21T08:02:28;93528.19;;;13.01;nan
7480;BME280;3781;42.272;22.658;2022-11-21T08:04:56;93526.22;;;13.03;nan
7480;BME280;3781;42.272;22.658;2022-11-21T08:07:23;93509.31;;;12.99;nan
7480;BME280;3781;42.272;22.658;2022-11-21T08:09:50;93525.44;;;13.03;nan
7480;BME280;3781;42.272;22.658;2022-11-21T08:12:16;93497.28;;;12.75;nan
7480;BME280;3781;42.272;22.658;2022-11-21T08:14:43;93528.81;;;13.11;nan
7480;BME280;3781;42.272;22.658;2022-11-21T08:17:10;93531.16;;;12.75;nan
7480;BME280;3781;42.272;22.658;2022-11-21T08:19:38;93542.06;;;12.48;nan
7480;BME280;3781;42.272;22.658;2022-11-21T08:22:06;93541.47;;;12.38;nan
7480;BME280;3781;42.272;22.658;2022-11-21T08:24:33;93548.69;;;12.20;nan
7480;BME280;3781;42.272;22.658;2022-11-21T08:27:00;93546.91;;;12.21;nan
7480;BME280;3781;42.272;22.658;2022-11-21T08:29:26;93548.91;;;12.10;nan
7480;BME280;3781;42.272;22.658;2022-11-21T08:31:53;93552.69;;;12.00;nan
7480;BME280;3781;42.272;22.658;2022-11-21T08:34:20;93549.31;;;11.91;nan
7480;BME280;3781;42.272;22.658;2022-11-21T08:36:47;93559.50;;;12.01;nan
7480;BME280;3781;42.272;22.658;2022-11-21T08:39:15;93560.00;;;12.04;nan
7480;BME280;3781;42.272;22.658;2022-11-21T08:41:41;93569.28;;;11.99;nan
7480;BME280;3781;42.272;22.658;2022-11-21T08:44:25;93572.69;;;11.99;nan
7480;BME280;3781;42.272;22.658;2022-11-21T08:46:53;93573.03;;;11.96;nan
7480;BME280;3781;42.272;22.658;2022-11-21T08:49:19;93574.34;;;12.00;nan
7480;BME280;3781;42.272;22.658;2022-11-21T08:51:47;93581.16;;;12.01;nan
7480;BME280;3781;42.272;22.658;2022-11-21T08:54:16;93580.47;;;12.07;nan
7480;BME280;3781;42.272;22.658;2022-11-21T08:56:43;93593.19;;;12.02;nan
7480;BME280;3781;42.272;22.658;2022-11-21T08:59:10;93591.38;;;12.11;nan
7480;BME280;3781;42.272;22.658;2022-11-21T09:01:37;93588.41;;;12.14;nan
7480;BME280;3781;42.272;22.658;2022-11-21T09:04:04;93583.06;;;12.16;nan
7480;BME280;3781;42.272;22.658;2022-11-21T09:06:31;93589.56;;;12.11;nan
7480;BME280;3781;42.272;22.658;2022-11-21T09:08:58;93589.56;;;12.11;nan
7480;BME280;3781;42.272;22.658;2022-11-21T09:11:26;93600.88;;;12.27;nan
7480;BME280;3781;42.272;22.658;2022-11-21T09:13:53;93598.91;;;12.37;nan
7480;BME280;3781;42.272;22.658;2022-11-21T09:16:37;93598.75;;;12.38;nan
7480;BME280;3781;42.272;22.658;2022-11-21T09:19:22;93603.63;;;12.33;nan
7480;BME280;3781;42.272;22.658;2022-11-21T09:21:49;93575.63;;;12.04;nan
7480;BME280;3781;42.272;22.658;2022-11-21T09:24:15;93591.38;;;12.11;nan
7480;BME280;3781;42.272;22.658;2022-11-21T09:26:44;93591.72;;;11.92;nan
7480;BME280;3781;42.272;22.658;2022-11-21T09:29:12;93584.63;;;11.62;nan
7480;BME280;3781;42.272;22.658;2022-11-21T09:31:41;93593.25;;;11.54;nan
7480;BME280;3781;42.272;22.658;2022-11-21T09:34:08;93589.69;;;11.15;nan
7480;BME280;3781;42.272;22.658;2022-11-21T09:36:34;93559.16;;;10.85;nan
7480;BME280;3781;42.272;22.658;2022-11-21T09:39:02;93585.78;;;11.03;nan
7480;BME280;3781;42.272;22.658;2022-11-21T09:41:32;93582.22;;;10.96;nan
7480;BME280;3781;42.272;22.658;2022-11-21T09:44:45;93567.25;;;10.74;nan
7480;BME280;3781;42.272;22.658;2022-11-21T09:47:21;93595.53;;;10.85;nan
7480;BME280;3781;42.272;22.658;2022-11-21T09:49:51;93578.66;;;10.81;nan
7480;BME280;3781;42.272;22.658;2022-11-21T09:52:21;93588.88;;;10.90;nan
7480;BME280;3781;42.272;22.658;2022-11-21T09:54:54;93589.50;;;10.76;nan
7480;BME280;3781;42.272;22.658;2022-11-21T09:57:23;93585.09;;;10.69;nan
7480;BME280;3781;42.272;22.658;2022-11-21T09:59:53;93593.41;;;10.72;nan
7480;BME280;3781;42.272;22.658;2022-11-21T10:02:22;93584.44;;;10.67;nan
7480;BME280;3781;42.272;22.658;2022-11-21T10:04:50;93585.88;;;10.53;nan
7480;BME280;3781;42.272;22.658;2022-11-21T10:07:20;93582.50;;;10.52;nan
7480;BME280;3781;42.272;22.658;2022-11-21T10:10:06;93595.81;;;10.66;nan
7480;BME280;3781;42.272;22.658;2022-11-21T10:12:46;93586.09;;;10.76;nan
7480;BME280;3781;42.272;22.658;2022-11-21T10:15:30;93584.63;;;10.65;nan
7480;BME280;3781;42.272;22.658;2022-11-21T10:18:18;93572.13;;;10.77;nan
7480;BME280;3781;42.272;22.658;2022-11-21T10:20:53;93580.72;;;10.77;nan
7480;BME280;3781;42.272;22.658;2022-11-21T10:23:41;93579.91;;;10.69;nan
7480;BME280;3781;42.272;22.658;2022-11-21T10:26:14;93574.13;;;11.07;nan
7480;BME280;3781;42.272;22.658;2022-11-21T10:28:48;93569.56;;;11.17;nan
7480;BME280;3781;42.272;22.658;2022-11-21T10:31:18;93567.63;;;11.19;nan
7480;BME280;3781;42.272;22.658;2022-11-21T10:33:47;93573.13;;;11.08;nan
7480;BME280;3781;42.272;22.658;2022-11-21T10:36:23;93566.66;;;10.96;nan
7480;BME280;3781;42.272;22.658;2022-11-21T10:38:50;93569.53;;;11.01;nan
7480;BME280;3781;42.272;22.658;2022-11-21T10:41:24;93577.53;;;11.15;nan
7480;BME280;3781;42.272;22.658;2022-11-21T10:44:02;93549.75;;;11.00;nan
7480;BME280;3781;42.272;22.658;2022-11-21T10:46:55;93564.03;;;11.36;nan
7480;BME280;3781;42.272;22.658;2022-11-21T10:49:23;93553.13;;;11.49;nan
7480;BME280;3781;42.272;22.658;2022-11-21T10:51:55;93572.31;;;11.48;nan
7480;BME280;3781;42.272;22.658;2022-11-21T10:54:25;93576.22;;;12.53;nan
7480;BME280;3781;42.272;22.658;2022-11-21T10:57:00;93566.69;;;12.38;nan
7480;BME280;3781;42.272;22.658;2022-11-21T10:59:29;93560.03;;;13.34;nan
7480;BME280;3781;42.272;22.658;2022-11-21T11:01:58;93571.22;;;14.38;nan
7480;BME280;3781;42.272;22.658;2022-11-21T11:04:27;93567.09;;;14.29;nan
7480;BME280;3781;42.272;22.658;2022-11-21T11:06:54;93555.97;;;13.69;nan
7480;BME280;3781;42.272;22.658;2022-11-21T11:09:26;93565.44;;;13.70;nan
7480;BME280;3781;42.272;22.658;2022-11-21T11:12:18;93565.38;;;13.40;nan
7480;BME280;3781;42.272;22.658;2022-11-21T11:14:50;93556.25;;;12.38;nan
7480;BME280;3781;42.272;22.658;2022-11-21T11:17:27;93553.88;;;11.89;nan
7480;BME280;3781;42.272;22.658;2022-11-21T11:20:00;93557.47;;;11.80;nan
7480;BME280;3781;42.272;22.658;2022-11-21T11:22:28;93542.22;;;11.61;nan
7480;BME280;3781;42.272;22.658;2022-11-21T11:24:55;93558.78;;;11.76;nan
7480;BME280;3781;42.272;22.658;2022-11-21T11:27:26;93546.75;;;11.59;nan
7480;BME280;3781;42.272;22.658;2022-11-21T11:29:53;93551.66;;;11.54;nan
7480;BME280;3781;42.272;22.658;2022-11-21T11:32:20;93543.88;;;11.38;nan
7480;BME280;3781;42.272;22.658;2022-11-21T11:34:55;93561.69;;;11.81;nan
7480;BME280;3781;42.272;22.658;2022-11-21T11:37:29;93558.34;;;12.42;nan
7480;BME280;3781;42.272;22.658;2022-11-21T11:40:07;93560.63;;;12.76;nan
7480;BME280;3781;42.272;22.658;2022-11-21T11:42:55;93557.38;;;12.74;nan
7480;BME280;3781;42.272;22.658;2022-11-21T11:46:03;93555.72;;;13.93;nan
7480;BME280;3781;42.272;22.658;2022-11-21T11:48:52;93560.84;;;13.72;nan
7480;BME280;3781;42.272;22.658;2022-11-21T11:51:25;93546.50;;;12.93;nan
7480;BME280;3781;42.272;22.658;2022-11-21T11:53:59;93557.41;;;12.66;nan
7480;BME280;3781;42.272;22.658;2022-11-21T11:56:31;93553.72;;;12.30;nan
7480;BME280;3781;42.272;22.658;2022-11-21T11:59:02;93566.09;;;12.28;nan
7480;BME280;3781;42.272;22.658;2022-11-21T12:01:36;93562.16;;;12.32;nan
7480;BME280;3781;42.272;22.658;2022-11-21T12:04:09;93564.53;;;12.10;nan
7480;BME280;3781;42.272;22.658;2022-11-21T12:06:42;93570.81;;;12.24;nan
7480;BME280;3781;42.272;22.658;2022-11-21T12:09:16;93520.94;;;12.13;nan
7480;BME280;3781;42.272;22.658;2022-11-21T12:11:52;93562.34;;;12.61;nan
7480;BME280;3781;42.272;22.658;2022-11-21T12:14:40;93543.00;;;13.01;nan
7480;BME280;3781;42.272;22.658;2022-11-21T12:17:32;93564.03;;;13.44;nan
7480;BME280;3781;42.272;22.658;2022-11-21T12:20:02;93573.19;;;13.40;nan
7480;BME280;3781;42.272;22.658;2022-11-21T12:22:35;93563.09;;;12.92;nan
7480;BME280;3781;42.272;22.658;2022-11-21T12:25:03;93532.34;;;12.65;nan
7480;BME280;3781;42.272;22.658;2022-11-21T12:27:31;93559.44;;;12.56;nan
7480;BME280;3781;42.272;22.658;2022-11-21T12:30:16;93569.53;;;12.59;nan
7480;BME280;3781;42.272;22.658;2022-11-21T12:32:54;93567.88;;;12.58;nan
7480;BME280;3781;42.272;22.658;2022-11-21T12:35:39;93561.44;;;12.76;nan
7480;BME280;3781;42.272;22.658;2022-11-21T12:38:20;93560.50;;;12.69;nan
7480;BME280;3781;42.272;22.658;2022-11-21T12:41:01;93569.75;;;12.95;nan
7480;BME280;3781;42.272;22.658;2022-11-21T12:44:00;93571.06;;;12.68;nan
7480;BME280;3781;42.272;22.658;2022-11-21T12:46:35;93579.81;;;12.75;nan
7480;BME280;3781;42.272;22.658;2022-11-21T12:49:12;93556.44;;;12.67;nan
7480;BME280;3781;42.272;22.658;2022-11-21T12:52:10;93571.50;;;12.79;nan
7480;BME280;3781;42.272;22.658;2022-11-21T12:55:07;93574.44;;;13.07;nan
7480;BME280;3781;42.272;22.658;2022-11-21T12:57:45;93577.84;;;13.08;nan
7480;BME280;3781;42.272;22.658;2022-11-21T13:00:22;93562.06;;;13.01;nan
7480;BME280;3781;42.272;22.658;2022-11-21T13:03:11;93580.38;;;12.93;nan
7480;BME280;3781;42.272;22.658;2022-11-21T13:05:45;93574.09;;;13.10;nan
7480;BME280;3781;42.272;22.658;2022-11-21T13:08:16;93570.91;;;12.92;nan
7480;BME280;3781;42.272;22.658;2022-11-21T13:10:51;93586.19;;;12.72;nan
7480;BME280;3781;42.272;22.658;2022-11-21T13:13:42;93561.84;;;12.57;nan
7480;BME280;3781;42.272;22.658;2022-11-21T13:16:17;93585.94;;;12.59;nan
7480;BME280;3781;42.272;22.658;2022-11-21T13:19:02;93585.16;;;12.59;nan
7480;BME280;3781;42.272;22.658;2022-11-21T13:21:39;93580.28;;;12.56;nan
7480;BME280;3781;42.272;22.658;2022-11-21T13:24:06;93585.34;;;12.49;nan
7480;BME280;3781;42.272;22.658;2022-11-21T13:26:51;93581.28;;;12.47;nan
7480;BME280;3781;42.272;22.658;2022-11-21T13:29:18;93584.47;;;12.65;nan
7480;BME280;3781;42.272;22.658;2022-11-21T13:31:45;93579.81;;;12.83;nan
7480;BME280;3781;42.272;22.658;2022-11-21T13:34:36;93588.16;;;12.70;nan
7480;BME280;3781;42.272;22.658;2022-11-21T13:37:04;93590.81;;;12.62;nan
7480;BME280;3781;42.272;22.658;2022-11-21T13:39:35;93583.25;;;12.45;nan
7480;BME280;3781;42.272;22.658;2022-11-21T13:42:13;93589.78;;;12.41;nan
7480;BME280;3781;42.272;22.658;2022-11-21T13:44:58;93593.72;;;12.37;nan
7480;BME280;3781;42.272;22.658;2022-11-21T13:47:57;93578.09;;;12.37;nan
7480;BME280;3781;42.272;22.658;2022-11-21T13:50:40;93586.28;;;12.26;nan